Time;durP1;ratioP1;P1;durP2;ratioP2;P2;SDS_P1;SDS_P2;PMS_P1;PMS_P2;Temp;Humidity;BMP_temperature;BMP_pressure;BME280_temperature;BME280_humidity;BME280_pressure;Samples;Min_cycle;Max_cycle;Signal;HPM_P1;HPM_P2
2022/01/14 00:01:06;;;;;;;30.00;17.90;;;;;;;3.24;90.70;100569.56;105662;1276;139040;-71
2022/01/14 00:03:38;;;;;;;32.20;19.40;;;;;;;3.26;90.73;100564.07;105629;1276;112564;-72
2022/01/14 00:06:10;;;;;;;27.50;17.40;;;;;;;3.29;90.52;100569.05;105613;1276;139169;-72
2022/01/14 00:08:42;;;;;;;27.70;17.00;;;;;;;3.32;90.69;100574.05;105844;1276;108762;-72
2022/01/14 00:11:17;;;;;;;31.30;17.30;;;;;;;3.36;90.69;100575.59;105703;1274;139591;-72
2022/01/14 00:13:56;;;;;;;33.20;18.70;;;;;;;3.38;90.62;100563.39;105674;1276;97954;-72
2022/01/14 00:16:28;;;;;;;28.90;18.80;;;;;;;3.39;90.31;100571.98;105681;1276;111507;-72
2022/01/14 00:19:00;;;;;;;32.60;19.20;;;;;;;3.37;90.35;100568.38;105692;1275;138729;-73
2022/01/14 00:21:33;;;;;;;32.50;17.30;;;;;;;3.36;90.33;100565.11;105638;1277;108304;-73
2022/01/14 00:24:07;;;;;;;31.80;17.10;;;;;;;3.35;90.32;100551.19;105698;1276;139601;-71
2022/01/14 00:32:28;;;;;;;29.30;16.10;;;;;;;3.36;90.30;100529.36;105667;1278;108999;-71
2022/01/14 00:35:00;;;;;;;30.20;16.60;;;;;;;3.38;90.45;100535.38;105494;1276;140992;-71
2022/01/14 00:37:32;;;;;;;29.50;17.40;;;;;;;3.39;90.49;100529.70;105716;1277;97858;-72
2022/01/14 00:40:05;;;;;;;30.80;19.30;;;;;;;3.39;90.23;100521.45;105810;1276;97960;-72
2022/01/14 00:42:37;;;;;;;36.30;18.50;;;;;;;3.38;90.27;100522.66;107388;1274;137891;-71
2022/01/14 00:45:11;;;;;;;28.50;17.10;;;;;;;3.38;90.10;100523.17;107330;1275;108852;-71
2022/01/14 00:47:44;;;;;;;27.60;16.10;;;;;;;3.37;90.03;100518.36;107176;1276;138687;-72
2022/01/14 00:50:18;;;;;;;23.80;15.20;;;;;;;3.38;90.11;100509.25;106025;1275;97833;-72
2022/01/14 00:52:50;;;;;;;25.70;15.60;;;;;;;3.40;90.14;100510.98;105562;1276;138862;-70
2022/01/14 00:55:27;;;;;;;27.30;15.60;;;;;;;3.42;89.95;100510.14;105777;1275;111454;-72
2022/01/14 01:00:47;;;;;;;29.90;16.80;;;;;;;3.48;89.95;100507.04;105672;1276;124730;-70
2022/01/14 01:03:19;;;;;;;30.50;17.80;;;;;;;3.48;89.80;100497.75;105684;1277;97855;-70
2022/01/14 01:05:51;;;;;;;28.40;17.20;;;;;;;3.48;89.84;100498.78;105770;1276;137955;-71
2022/01/14 01:08:26;;;;;;;33.30;18.30;;;;;;;3.46;89.66;100503.43;105776;1276;111128;-70
2022/01/14 01:10:58;;;;;;;29.50;17.00;;;;;;;3.45;89.55;100500.33;105535;1276;138946;-71
2022/01/14 01:13:35;;;;;;;32.30;16.50;;;;;;;3.43;89.55;100495.52;105555;1276;108933;-71
2022/01/14 01:16:07;;;;;;;29.30;17.30;;;;;;;3.42;89.59;100491.58;105593;1276;97634;-72
2022/01/14 01:18:39;;;;;;;30.30;17.00;;;;;;;3.43;89.74;100484.70;105410;1277;138948;-71
2022/01/14 01:21:11;;;;;;;28.90;16.10;;;;;;;3.44;89.55;100472.84;105619;1276;111102;-71
2022/01/14 01:23:43;;;;;;;30.10;16.70;;;;;;;3.43;89.36;100471.30;105567;1276;139909;-72
2022/01/14 01:26:23;;;;;;;33.40;17.10;;;;;;;3.44;89.50;100452.03;105714;1276;107864;-72
2022/01/14 01:29:04;;;;;;;33.00;17.70;;;;;;;3.44;89.36;100453.92;105658;1275;139119;-71
2022/01/14 01:31:38;;;;;;;31.00;17.20;;;;;;;3.41;89.42;100445.85;105694;1276;97845;-71
2022/01/14 01:34:13;;;;;;;30.70;16.30;;;;;;;3.41;89.49;100445.50;105584;1277;112622;-71
2022/01/14 01:36:47;;;;;;;29.00;16.00;;;;;;;3.40;89.39;100446.52;105565;1276;139063;-71
2022/01/14 01:39:21;;;;;;;29.20;15.70;;;;;;;3.39;89.49;100448.74;106321;1276;109101;-71
2022/01/14 01:41:56;;;;;;;26.30;15.40;;;;;;;3.41;89.52;100438.45;105839;1276;140332;-71
2022/01/14 01:44:29;;;;;;;29.80;15.50;;;;;;;3.44;89.42;100443.78;105867;1274;97884;-71
2022/01/14 01:47:01;;;;;;;34.00;16.40;;;;;;;3.46;89.48;100447.39;105565;1276;138520;-71
2022/01/14 01:49:36;;;;;;;26.70;15.30;;;;;;;3.49;89.46;100448.25;105706;1276;107739;-72
2022/01/14 01:52:09;;;;;;;33.90;17.10;;;;;;;3.49;89.15;100449.27;105684;1274;109220;-72
2022/01/14 01:54:41;;;;;;;32.60;17.50;;;;;;;3.47;89.48;100441.72;105724;1275;138328;-71
2022/01/14 01:57:14;;;;;;;28.30;16.40;;;;;;;3.44;89.19;100441.20;105709;1276;97978;-72
2022/01/14 01:59:46;;;;;;;32.60;17.10;;;;;;;3.43;89.24;100435.70;105530;1275;139505;-72
2022/01/14 02:02:18;;;;;;;29.30;15.90;;;;;;;3.43;89.33;100438.97;105985;1274;109035;-71
2022/01/14 02:04:50;;;;;;;28.80;15.50;;;;;;;3.45;89.32;100426.94;105545;1276;139098;-72
2022/01/14 02:07:22;;;;;;;33.80;15.50;;;;;;;3.46;89.44;100425.73;105804;1275;97845;-72
2022/01/14 02:09:54;;;;;;;27.20;15.40;;;;;;;3.47;89.41;100412.66;105840;1276;97714;-72
2022/01/14 02:12:33;;;;;;;30.50;16.50;;;;;;;3.48;89.43;100408.88;105695;1275;138106;-72
2022/01/14 02:15:12;;;;;;;33.70;17.10;;;;;;;3.46;89.27;100401.16;105620;1276;108821;-71
2022/01/14 02:18:13;;;;;;;29.70;15.80;;;;;;;3.44;89.29;100395.83;105535;1275;139300;-71
2022/01/14 02:23:31;;;;;;;31.60;15.80;;;;;;;3.43;89.47;100382.25;105602;1275;138533;-71
2022/01/14 02:26:04;;;;;;;27.80;14.40;;;;;;;3.42;89.40;100377.45;106229;1276;112655;-70
2022/01/14 02:28:36;;;;;;;25.10;13.60;;;;;;;3.43;89.42;100378.64;105717;1276;108902;-72
2022/01/14 02:31:08;;;;;;;25.10;14.10;;;;;;;3.45;89.62;100371.25;105484;1275;138867;-72
2022/01/14 02:33:40;;;;;;;24.70;14.00;;;;;;;3.48;89.50;100375.19;105919;1275;97830;-72
2022/01/14 02:36:13;;;;;;;23.70;14.80;;;;;;;3.49;89.63;100354.73;105571;1275;139553;-72
2022/01/14 02:38:46;;;;;;;26.20;15.40;;;;;;;3.50;89.41;100348.88;105832;1276;113679;-71
2022/01/14 02:41:18;;;;;;;25.60;14.00;;;;;;;3.48;89.79;100344.42;105608;1275;138582;-71
2022/01/14 02:43:50;;;;;;;25.90;14.60;;;;;;;3.46;89.74;100338.41;105885;1276;109222;-71
2022/01/14 02:46:22;;;;;;;24.90;14.30;;;;;;;3.44;89.81;100341.69;105818;1275;97871;-71
2022/01/14 02:48:54;;;;;;;25.40;14.50;;;;;;;3.44;89.63;100329.48;105586;1276;138767;-71
2022/01/14 02:51:26;;;;;;;23.10;13.70;;;;;;;3.43;90.03;100319.52;105739;1276;112459;-70
2022/01/14 02:54:10;;;;;;;24.80;13.90;;;;;;;3.43;90.14;100310.57;105812;1276;139011;-71
2022/01/14 02:56:46;;;;;;;21.90;12.80;;;;;;;3.45;90.25;100311.94;105636;1276;108891;-71
2022/01/14 02:59:20;;;;;;;23.70;14.30;;;;;;;3.46;90.22;100313.66;105642;1276;138944;-71
2022/01/14 03:01:52;;;;;;;25.50;14.70;;;;;;;3.46;90.24;100308.50;105733;1276;99333;-71
2022/01/14 03:04:25;;;;;;;29.10;15.30;;;;;;;3.47;90.34;100295.60;105600;1276;112605;-71
2022/01/14 03:06:57;;;;;;;24.40;14.60;;;;;;;3.45;90.42;100301.12;105613;1276;137952;-71
2022/01/14 03:09:29;;;;;;;23.50;13.40;;;;;;;3.44;90.37;100301.98;105604;1276;106392;-70
2022/01/14 03:12:02;;;;;;;24.80;13.00;;;;;;;3.42;90.49;100293.73;105439;1276;138676;-70
2022/01/14 03:14:34;;;;;;;22.50;13.60;;;;;;;3.40;90.43;100289.41;105668;1277;97863;-71
2022/01/14 03:17:06;;;;;;;18.80;12.20;;;;;;;3.39;90.61;100279.96;105612;1276;138940;-71
2022/01/14 03:19:39;;;;;;;20.10;12.90;;;;;;;3.40;90.87;100300.06;105660;1276;107996;-70
2022/01/14 03:22:20;;;;;;;23.50;12.50;;;;;;;3.40;90.77;100291.83;105509;1277;109080;-71
2022/01/14 03:27:42;;;;;;;22.00;12.60;;;;;;;3.37;90.60;100296.13;105684;1276;97832;-71
2022/01/14 03:30:16;;;;;;;20.40;13.20;;;;;;;3.38;90.92;100305.75;105633;1274;138102;-71
2022/01/14 03:32:48;;;;;;;22.10;13.40;;;;;;;3.36;90.76;100317.27;107370;1275;108843;-71
2022/01/14 03:35:20;;;;;;;21.70;13.40;;;;;;;3.34;90.81;100321.75;107250;1275;139700;-71
2022/01/14 03:37:52;;;;;;;20.50;13.10;;;;;;;3.33;90.61;100328.27;106560;1276;96386;-71
2022/01/14 03:40:24;;;;;;;18.40;12.00;;;;;;;3.33;90.74;100327.08;105745;1276;97843;-71
2022/01/14 03:42:56;;;;;;;21.90;12.90;;;;;;;3.33;90.60;100322.95;105627;1275;138860;-70
2022/01/14 03:45:28;;;;;;;20.90;12.60;;;;;;;3.34;90.76;100327.24;105736;1274;108848;-70
2022/01/14 03:48:00;;;;;;;16.20;11.20;;;;;;;3.35;90.53;100331.55;105559;1275;139288;-71
2022/01/14 03:50:32;;;;;;;18.70;12.10;;;;;;;3.38;90.81;100333.59;105682;1276;98632;-71
2022/01/14 03:53:04;;;;;;;18.90;12.30;;;;;;;3.40;90.67;100315.19;105565;1276;138606;-71
2022/01/14 03:55:43;;;;;;;17.60;12.70;;;;;;;3.41;90.70;100316.59;105663;1276;111157;-71
2022/01/14 03:58:36;;;;;;;20.30;13.30;;;;;;;3.41;90.76;100315.56;105828;1276;111083;-71
2022/01/14 04:01:08;;;;;;;16.20;12.00;;;;;;;3.40;90.86;100322.76;105641;1276;139414;-71
2022/01/14 04:03:41;;;;;;;19.80;12.30;;;;;;;3.39;90.70;100327.23;105549;1276;97837;-70
2022/01/14 04:06:14;;;;;;;18.80;10.80;;;;;;;3.37;90.74;100323.63;105758;1276;138667;-70
2022/01/14 04:08:46;;;;;;;18.20;11.00;;;;;;;3.35;90.77;100330.85;105581;1276;112976;-70
2022/01/14 04:11:18;;;;;;;16.20;10.40;;;;;;;3.38;90.92;100327.06;105495;1276;140583;-69
2022/01/14 04:13:53;;;;;;;19.30;11.00;;;;;;;3.40;90.86;100308.84;105667;1276;109527;-70
2022/01/14 04:16:27;;;;;;;18.10;11.40;;;;;;;3.44;91.16;100310.58;105746;1274;97935;-70
2022/01/14 04:18:59;;;;;;;19.40;11.40;;;;;;;3.46;90.75;100309.53;105574;1275;138638;-70
2022/01/14 04:21:31;;;;;;;18.10;11.90;;;;;;;3.46;90.94;100307.81;105755;1276;111503;-70
2022/01/14 04:24:03;;;;;;;18.50;12.90;;;;;;;3.43;90.71;100302.84;105580;1276;138101;-71
2022/01/14 04:26:35;;;;;;;18.00;11.50;;;;;;;3.41;90.78;100301.80;105714;1276;106648;-70
2022/01/14 04:29:07;;;;;;;15.80;10.80;;;;;;;3.39;90.76;100300.59;105425;1277;140815;-70
2022/01/14 04:31:39;;;;;;;15.80;10.70;;;;;;;3.36;90.80;100295.10;105699;1276;98207;-71
2022/01/14 04:34:11;;;;;;;15.80;10.10;;;;;;;3.34;91.00;100284.45;105607;1276;112697;-72
2022/01/14 04:36:43;;;;;;;15.50;9.80;;;;;;;3.33;90.92;100278.10;105665;1276;138876;-72
2022/01/14 04:39:15;;;;;;;16.80;9.90;;;;;;;3.35;90.99;100279.13;105746;1276;109094;-70
2022/01/14 04:41:47;;;;;;;16.70;9.30;;;;;;;3.35;91.06;100264.17;105517;1276;157097;-69
2022/01/14 04:44:19;;;;;;;14.60;9.20;;;;;;;3.37;91.14;100248.88;105796;1277;97845;-70
2022/01/14 04:47:14;;;;;;;16.10;9.60;;;;;;;3.38;91.13;100256.42;105789;1276;138056;-71
2022/01/14 04:49:46;;;;;;;15.70;9.80;;;;;;;3.40;91.34;100236.48;105915;1276;109182;-71
2022/01/14 04:52:18;;;;;;;14.00;8.50;;;;;;;3.38;91.27;100226.52;105833;1276;108763;-71
2022/01/14 04:54:50;;;;;;;14.40;8.60;;;;;;;3.37;91.38;100223.60;105628;1276;140318;-70
2022/01/14 04:57:22;;;;;;;14.90;8.40;;;;;;;3.36;91.30;100231.17;105759;1277;97750;-70
2022/01/14 04:59:53;;;;;;;12.50;8.20;;;;;;;3.38;91.49;100228.41;105763;1276;139601;-71
2022/01/14 05:02:26;;;;;;;12.30;6.90;;;;;;;3.41;91.58;100231.85;105934;1276;108910;-72
2022/01/14 05:04:59;;;;;;;15.30;7.60;;;;;;;3.46;91.25;100242.33;105575;1275;140510;-72
2022/01/14 05:07:31;;;;;;;11.90;7.20;;;;;;;3.48;91.30;100236.80;105630;1276;98241;-72
2022/01/14 05:10:18;;;;;;;12.50;7.40;;;;;;;3.51;91.44;100233.70;105704;1275;97861;-71
2022/01/14 05:12:50;;;;;;;10.40;6.80;;;;;;;3.54;91.36;100229.21;105628;1275;139414;-72
2022/01/14 05:15:23;;;;;;;11.80;7.20;;;;;;;3.56;91.23;100219.40;105705;1275;108727;-71
2022/01/14 05:17:56;;;;;;;15.50;6.90;;;;;;;3.57;91.24;100210.45;105556;1275;138053;-71
2022/01/14 05:20:27;;;;;;;11.80;7.30;;;;;;;3.58;91.12;100210.10;105770;1274;97892;-71
2022/01/14 05:22:59;;;;;;;11.30;6.20;;;;;;;3.57;91.19;100207.19;105641;1274;139156;-71
2022/01/14 05:25:32;;;;;;;9.90;6.00;;;;;;;3.56;90.90;100194.64;105769;1274;112806;-71
2022/01/14 05:28:05;;;;;;;10.50;6.40;;;;;;;3.57;90.97;100194.13;105643;1276;108924;-70
2022/01/14 05:30:37;;;;;;;12.20;6.50;;;;;;;3.56;91.15;100188.80;105658;1275;138878;-70
2022/01/14 05:33:09;;;;;;;9.40;5.80;;;;;;;3.57;90.84;100186.90;105915;1276;97821;-71
2022/01/14 05:35:41;;;;;;;9.30;5.40;;;;;;;3.59;91.21;100181.92;105557;1275;138506;-70
2022/01/14 05:38:14;;;;;;;9.00;5.30;;;;;;;3.64;91.22;100181.39;105828;1276;112403;-71
2022/01/14 05:40:46;;;;;;;7.60;5.40;;;;;;;3.65;91.11;100181.21;105852;1276;139164;-71
2022/01/14 05:43:18;;;;;;;10.70;6.00;;;;;;;3.66;91.02;100177.60;105930;1276;108830;-71
2022/01/14 05:45:50;;;;;;;9.20;5.80;;;;;;;3.65;90.78;100169.00;105896;1276;98632;-70
2022/01/14 05:48:22;;;;;;;9.20;5.70;;;;;;;3.65;90.83;100172.79;105903;1276;139625;-70
2022/01/14 05:50:55;;;;;;;10.20;5.70;;;;;;;3.66;90.76;100165.21;105811;1276;112419;-71
2022/01/14 05:53:27;;;;;;;8.90;4.90;;;;;;;3.68;90.61;100166.75;105671;1276;140022;-71
2022/01/14 05:55:59;;;;;;;10.50;5.20;;;;;;;3.68;90.63;100161.08;105648;1276;109344;-71
2022/01/14 05:58:31;;;;;;;11.80;5.30;;;;;;;3.69;90.61;100146.98;105744;1275;97827;-71
2022/01/14 06:01:03;;;;;;;8.50;4.50;;;;;;;3.70;90.41;100146.95;105609;1274;138482;-70
2022/01/14 06:03:35;;;;;;;7.80;5.00;;;;;;;3.73;90.38;100141.43;105926;1276;112556;-72
2022/01/14 06:06:07;;;;;;;11.30;5.10;;;;;;;3.75;90.45;100153.11;105631;1274;137901;-72
2022/01/14 06:08:39;;;;;;;9.00;5.00;;;;;;;3.75;90.43;100148.30;105775;1274;109361;-71
2022/01/14 06:11:11;;;;;;;9.20;4.60;;;;;;;3.76;90.47;100131.10;105617;1275;138562;-71
2022/01/14 06:13:43;;;;;;;9.90;4.40;;;;;;;3.78;90.28;100138.84;105601;1276;97852;-71
2022/01/14 06:16:15;;;;;;;8.90;4.50;;;;;;;3.81;90.39;100139.16;105677;1276;113045;-71
2022/01/14 06:18:48;;;;;;;6.20;3.90;;;;;;;3.84;90.30;100136.56;105575;1276;140454;-71
2022/01/14 06:21:20;;;;;;;5.50;3.70;;;;;;;3.88;90.15;100143.41;105829;1276;109044;-71
2022/01/14 06:23:52;;;;;;;10.20;4.00;;;;;;;3.92;90.11;100135.63;105895;1275;138538;-71
2022/01/14 06:26:26;;;;;;;7.10;4.20;;;;;;;3.95;90.12;100120.66;105905;1276;97845;-72
2022/01/14 06:28:58;;;;;;;8.70;4.90;;;;;;;3.98;89.86;100125.81;105858;1275;137898;-71
2022/01/14 06:31:31;;;;;;;8.50;4.70;;;;;;;4.00;90.07;100119.08;105858;1274;108893;-72
2022/01/14 06:34:03;;;;;;;7.30;4.50;;;;;;;4.00;89.73;100105.83;105940;1276;109064;-71
2022/01/14 06:36:35;;;;;;;6.40;3.90;;;;;;;4.01;89.82;100119.41;105629;1276;138437;-72
2022/01/14 06:39:07;;;;;;;9.60;4.10;;;;;;;4.01;89.68;100116.65;105995;1275;97863;-72
2022/01/14 06:41:39;;;;;;;8.40;4.10;;;;;;;4.01;89.70;100113.20;105847;1276;140408;-72
2022/01/14 06:44:11;;;;;;;8.00;4.20;;;;;;;4.03;89.54;100114.23;105868;1276;107972;-72
2022/01/14 06:46:43;;;;;;;7.70;4.40;;;;;;;4.02;89.73;100123.86;105984;1276;108821;-72
2022/01/14 06:49:15;;;;;;;7.80;4.80;;;;;;;4.03;89.84;100133.15;105749;1276;138548;-72
2022/01/14 06:51:47;;;;;;;9.70;5.10;;;;;;;4.02;89.86;100125.08;105769;1275;97875;-70
2022/01/14 06:54:19;;;;;;;8.80;4.90;;;;;;;4.02;89.70;100116.99;105742;1276;139321;-72
2022/01/14 06:56:51;;;;;;;7.10;4.60;;;;;;;4.01;89.78;100116.83;105910;1274;108816;-71
2022/01/14 06:59:23;;;;;;;7.80;4.30;;;;;;;3.98;89.85;100102.06;105865;1275;138532;-71
2022/01/14 07:01:55;;;;;;;6.40;4.20;;;;;;;3.95;89.94;100106.04;105755;1276;97852;-71
2022/01/14 07:04:27;;;;;;;8.70;4.20;;;;;;;3.95;89.85;100107.92;105782;1274;98672;-72
2022/01/14 07:06:59;;;;;;;8.60;4.70;;;;;;;3.95;90.30;100112.23;105601;1275;139780;-72
2022/01/14 07:09:31;;;;;;;7.30;4.70;;;;;;;3.94;90.16;100115.14;105678;1276;109705;-72
2022/01/14 07:12:05;;;;;;;8.70;5.30;;;;;;;3.94;90.15;100110.50;105630;1276;138229;-73
2022/01/14 07:14:37;;;;;;;9.20;5.00;;;;;;;3.94;90.35;100104.99;107353;1276;96135;-72
2022/01/14 07:17:09;;;;;;;8.70;4.90;;;;;;;3.91;90.25;100094.02;107270;1275;138792;-71
2022/01/14 07:19:41;;;;;;;6.30;4.50;;;;;;;3.87;90.28;100091.12;107380;1276;112302;-72
2022/01/14 07:22:13;;;;;;;6.90;4.30;;;;;;;3.86;90.37;100086.14;106371;1276;108384;-72
2022/01/14 07:24:45;;;;;;;8.00;4.70;;;;;;;3.83;90.40;100080.67;105824;1276;138406;-72
2022/01/14 07:27:18;;;;;;;10.40;4.60;;;;;;;3.83;90.49;100088.41;105843;1276;97955;-72
2022/01/14 07:29:49;;;;;;;7.70;4.40;;;;;;;3.84;90.59;100086.34;105846;1275;138839;-71
2022/01/14 07:32:22;;;;;;;6.50;4.40;;;;;;;3.85;90.90;100079.27;105772;1275;112482;-71
2022/01/14 07:34:54;;;;;;;9.10;4.50;;;;;;;3.85;90.77;100081.17;105568;1276;107933;-72
2022/01/14 07:37:26;;;;;;;7.80;4.80;;;;;;;3.86;91.00;100080.64;105648;1276;138503;-72
2022/01/14 07:39:58;;;;;;;9.20;4.60;;;;;;;3.86;91.00;100082.71;106036;1275;97839;-72
2022/01/14 07:42:30;;;;;;;7.80;5.50;;;;;;;3.87;91.13;100072.05;105847;1276;138416;-71
2022/01/14 07:45:02;;;;;;;10.20;6.40;;;;;;;3.86;91.21;100082.02;105934;1275;112446;-72
2022/01/14 07:47:34;;;;;;;9.40;6.60;;;;;;;3.86;91.28;100076.86;105836;1274;138161;-72
2022/01/14 07:50:07;;;;;;;9.80;6.20;;;;;;;3.84;91.18;100078.95;105986;1275;107065;-71
2022/01/14 07:52:39;;;;;;;10.50;6.00;;;;;;;3.83;91.37;100082.90;105959;1275;97829;-72
2022/01/14 07:55:12;;;;;;;10.10;5.80;;;;;;;3.83;91.17;100084.80;105734;1276;139755;-71
2022/01/14 07:57:45;;;;;;;8.70;6.30;;;;;;;3.85;91.47;100080.66;107447;1276;112968;-73
2022/01/14 08:00:19;;;;;;;8.40;5.70;;;;;;;3.87;91.60;100080.80;107394;1275;139269;-71
2022/01/14 08:02:52;;;;;;;9.80;6.50;;;;;;;3.89;91.65;100074.42;105868;1276;108737;-72
2022/01/14 08:05:24;;;;;;;10.30;5.70;;;;;;;3.90;91.42;100059.45;105762;1274;138934;-71
2022/01/14 08:07:58;;;;;;;8.60;5.50;;;;;;;3.92;91.33;100051.69;105877;1276;96526;-72
2022/01/14 08:10:30;;;;;;;8.80;5.90;;;;;;;3.96;91.60;100048.23;105854;1276;112544;-72
2022/01/14 08:13:02;;;;;;;10.30;6.30;;;;;;;3.98;91.65;100051.84;105681;1276;137825;-73
2022/01/14 08:15:35;;;;;;;8.20;6.50;;;;;;;3.98;91.71;100050.28;105843;1276;109529;-71
2022/01/14 08:18:07;;;;;;;8.40;6.00;;;;;;;3.97;91.81;100037.73;105607;1276;138235;-71
2022/01/14 08:20:39;;;;;;;10.00;6.00;;;;;;;3.94;91.62;100034.30;105830;1276;97847;-71
2022/01/14 08:23:11;;;;;;;8.00;5.90;;;;;;;3.93;91.73;100034.13;105579;1276;138924;-72
2022/01/14 08:25:43;;;;;;;8.90;6.60;;;;;;;3.94;91.85;100034.65;105914;1276;107818;-72
2022/01/14 08:28:15;;;;;;;8.90;6.10;;;;;;;3.94;92.03;100027.93;105779;1276;108946;-72
2022/01/14 08:30:47;;;;;;;8.20;5.30;;;;;;;3.96;92.00;100015.21;106451;1276;140957;-73
2022/01/14 08:33:20;;;;;;;10.40;6.60;;;;;;;3.98;91.95;100035.83;105650;1275;97829;-72
2022/01/14 08:35:52;;;;;;;10.10;6.70;;;;;;;3.99;91.99;100035.30;106083;1276;138758;-72
2022/01/14 08:38:24;;;;;;;9.50;6.70;;;;;;;4.02;92.20;100023.23;105700;1276;109289;-71
2022/01/14 08:40:56;;;;;;;9.10;6.80;;;;;;;4.03;91.74;100026.31;105871;1276;107191;-72
2022/01/14 08:43:28;;;;;;;9.90;7.80;;;;;;;4.05;92.01;100021.13;105633;1276;137749;-73
2022/01/14 08:46:02;;;;;;;11.00;7.90;;;;;;;4.05;92.07;100018.55;105907;1276;97850;-72
2022/01/14 08:48:35;;;;;;;13.10;7.90;;;;;;;4.05;91.99;100022.34;105739;1278;137902;-72
2022/01/14 08:51:06;;;;;;;9.90;6.90;;;;;;;4.04;91.80;100022.02;105990;1276;108783;-72
2022/01/14 08:53:38;;;;;;;10.90;6.80;;;;;;;4.05;92.26;100018.73;105536;1276;139573;-71
2022/01/14 08:56:10;;;;;;;10.20;7.00;;;;;;;4.05;91.95;100024.91;105877;1276;96476;-72
2022/01/14 08:58:42;;;;;;;11.10;7.10;;;;;;;4.07;92.00;100018.36;105712;1276;97855;-72
2022/01/14 09:01:14;;;;;;;9.10;6.60;;;;;;;4.10;92.07;100022.11;105841;1276;138624;-73
2022/01/14 09:03:47;;;;;;;11.80;6.30;;;;;;;4.13;92.31;100010.91;105692;1277;107952;-72
2022/01/14 09:06:19;;;;;;;12.10;7.20;;;;;;;4.14;92.06;100009.88;105724;1276;139996;-72
2022/01/14 09:08:51;;;;;;;10.70;7.30;;;;;;;4.17;91.95;100011.91;105860;1276;97845;-72
2022/01/14 09:11:23;;;;;;;10.60;7.10;;;;;;;4.22;92.06;100010.65;105703;1276;138281;-71
2022/01/14 09:13:55;;;;;;;11.50;7.50;;;;;;;4.25;92.13;100014.40;105693;1275;112262;-71
2022/01/14 09:16:27;;;;;;;12.70;8.30;;;;;;;4.25;91.92;100013.52;105904;1276;107798;-72
2022/01/14 09:19:00;;;;;;;11.10;7.70;;;;;;;4.28;91.97;100010.92;105673;1275;138420;-73
2022/01/14 09:21:32;;;;;;;9.50;6.60;;;;;;;4.29;91.93;100011.77;105803;1276;97839;-72
2022/01/14 09:24:04;;;;;;;8.80;5.90;;;;;;;4.31;92.00;100009.34;105601;1276;138494;-72
2022/01/14 09:26:38;;;;;;;10.80;6.30;;;;;;;4.33;91.92;100008.66;105770;1276;112924;-71
2022/01/14 09:29:11;;;;;;;9.70;5.70;;;;;;;4.34;91.97;100001.76;105574;1276;138902;-72
2022/01/14 09:31:43;;;;;;;7.70;5.80;;;;;;;4.37;92.04;100003.27;105802;1276;108729;-71
2022/01/14 09:34:16;;;;;;;8.50;5.90;;;;;;;4.42;92.14;99998.56;105814;1276;97931;-73
2022/01/14 09:36:48;;;;;;;10.80;6.70;;;;;;;4.46;92.18;99993.34;105761;1273;138291;-71
2022/01/14 09:39:21;;;;;;;10.70;5.70;;;;;;;4.49;92.10;99989.88;105847;1276;112456;-72
2022/01/14 09:41:53;;;;;;;10.10;6.10;;;;;;;4.51;92.06;99987.98;105654;1276;139556;-72
2022/01/14 09:44:25;;;;;;;8.50;6.30;;;;;;;4.52;91.75;99984.85;105765;1276;108887;-72
2022/01/14 09:46:57;;;;;;;7.20;5.50;;;;;;;4.54;92.12;99985.69;105849;1275;97946;-72
2022/01/14 09:49:31;;;;;;;8.90;4.90;;;;;;;4.58;92.03;99992.17;105806;1276;138313;-72
2022/01/14 09:52:04;;;;;;;8.30;5.30;;;;;;;4.61;91.97;99978.17;105850;1276;112413;-72
2022/01/14 09:54:37;;;;;;;7.40;4.80;;;;;;;4.65;92.00;99979.16;105641;1275;139177;-72
2022/01/14 09:57:11;;;;;;;7.60;5.10;;;;;;;4.69;92.01;99974.48;105768;1276;108702;-72
2022/01/14 09:59:43;;;;;;;11.50;7.80;;;;;;;4.73;91.89;99974.08;105613;1276;139159;-71
2022/01/14 10:02:34;;;;;;;9.90;6.70;;;;;;;4.77;91.70;99973.33;105817;1276;97848;-72
2022/01/14 10:05:10;;;;;;;8.30;4.80;;;;;;;4.81;91.79;99965.88;105762;1276;139207;-72
2022/01/14 10:07:42;;;;;;;9.60;6.30;;;;;;;4.84;91.87;99962.39;105860;1276;108200;-71
2022/01/14 10:10:25;;;;;;;7.80;5.10;;;;;;;4.88;91.61;99964.27;105973;1275;108844;-71
2022/01/14 10:13:10;;;;;;;6.70;4.90;;;;;;;4.86;91.55;99960.32;105476;1276;138422;-71
2022/01/14 10:15:47;;;;;;;5.60;4.20;;;;;;;4.85;91.59;99956.53;105739;1276;97940;-69
2022/01/14 10:18:21;;;;;;;5.70;4.30;;;;;;;4.86;91.53;99944.81;105603;1275;138428;-70
2022/01/14 10:21:00;;;;;;;6.20;4.00;;;;;;;4.86;91.48;99927.59;107346;1276;108573;-70
2022/01/14 10:23:47;;;;;;;6.90;3.90;;;;;;;4.89;91.59;99936.15;106607;1276;138813;-69
2022/01/14 10:26:18;;;;;;;;;;;;;;;4.92;91.42;99937.48;105422;1276;97823;-70
2022/01/14 10:29:05;;;;;;;7.80;4.10;;;;;;;4.94;91.71;99933.66;105536;1276;97809;-70
2022/01/14 10:31:39;;;;;;;6.80;3.80;;;;;;;4.95;91.78;99922.80;105450;1277;138929;-70
2022/01/14 10:34:14;;;;;;;6.50;4.50;;;;;;;4.98;91.52;99928.94;105732;1278;108931;-69
2022/01/14 10:36:50;;;;;;;6.80;4.00;;;;;;;5.01;91.70;99922.17;105660;1276;138743;-73
2022/01/14 10:39:28;;;;;;;7.40;4.70;;;;;;;5.02;91.33;99915.27;107250;1276;96154;-72
2022/01/14 10:42:21;;;;;;;8.40;4.40;;;;;;;5.02;91.50;99902.88;107246;1277;138132;-72
2022/01/14 10:45:24;;;;;;;8.80;4.00;;;;;;;5.02;91.61;99911.15;106466;1276;112691;-71
2022/01/14 10:47:59;;;;;;;15.50;8.40;;;;;;;5.04;91.77;99911.13;105726;1278;139889;-70
2022/01/14 10:50:34;;;;;;;25.70;14.20;;;;;;;5.07;91.60;99907.80;107414;1276;109005;-71
2022/01/14 10:53:11;;;;;;;11.40;5.70;;;;;;;5.15;91.48;99911.46;106137;1276;97955;-71
2022/01/14 10:55:50;;;;;;;7.40;4.10;;;;;;;5.21;91.25;99906.38;107161;1277;138186;-70
2022/01/14 10:58:27;;;;;;;8.30;4.60;;;;;;;5.28;91.14;99913.17;106661;1276;111710;-71
2022/01/14 11:01:02;;;;;;;6.80;3.80;;;;;;;5.33;91.11;99910.48;105600;1276;137983;-71
2022/01/14 11:03:39;;;;;;;5.00;3.40;;;;;;;5.36;90.95;99903.69;105724;1278;108994;-72
2022/01/14 11:06:20;;;;;;;4.40;3.30;;;;;;;5.40;90.86;99906.25;105654;1276;137767;-71
2022/01/14 11:08:57;;;;;;;6.60;2.90;;;;;;;5.42;90.85;99898.45;107406;1276;96414;-71
2022/01/14 11:11:30;;;;;;;3.90;2.90;;;;;;;5.45;90.64;99896.67;107203;1276;138349;-71
2022/01/14 11:14:03;;;;;;;5.80;2.70;;;;;;;5.46;90.27;99892.52;106652;1276;108714;-72
2022/01/14 11:16:36;;;;;;;5.20;2.60;;;;;;;5.49;90.32;99887.63;105832;1277;109190;-70
2022/01/14 11:19:10;;;;;;;5.00;2.80;;;;;;;5.55;90.36;99886.83;105754;1276;139391;-71
2022/01/14 11:24:34;;;;;;;5.00;2.90;;;;;;;5.59;89.81;99877.47;105749;1277;137674;-70
2022/01/14 11:27:13;;;;;;;5.30;2.90;;;;;;;5.61;89.84;99891.56;105704;1276;108982;-70
2022/01/14 11:29:47;;;;;;;5.60;2.80;;;;;;;5.61;89.47;99884.52;105621;1276;137815;-70
2022/01/14 11:32:19;;;;;;;5.50;2.80;;;;;;;5.59;89.30;99889.36;105853;1276;97827;-71
2022/01/14 11:34:51;;;;;;;4.00;2.20;;;;;;;5.59;89.42;99886.11;105840;1276;97860;-70
2022/01/14 11:37:36;;;;;;;3.50;2.30;;;;;;;5.61;89.27;99893.64;105737;1274;138256;-70
2022/01/14 11:40:12;;;;;;;6.10;2.20;;;;;;;5.63;89.47;99890.33;105813;1276;107845;-70
2022/01/14 11:42:47;;;;;;;5.00;3.10;;;;;;;5.64;89.11;99882.89;105669;1275;138163;-70
2022/01/14 11:45:21;;;;;;;4.70;2.50;;;;;;;5.67;89.39;99874.02;105864;1276;97848;-70
2022/01/14 11:48:02;;;;;;;4.40;2.80;;;;;;;5.69;88.93;99878.83;105666;1276;137646;-72
2022/01/14 11:50:47;;;;;;;7.10;2.70;;;;;;;5.68;89.01;99885.74;105685;1276;112286;-72
2022/01/14 11:53:44;;;;;;;7.90;2.90;;;;;;;5.67;88.71;99880.42;105768;1276;109066;-72
2022/01/14 11:56:47;;;;;;;6.30;2.50;;;;;;;5.66;88.67;99878.02;105917;1276;109684;-71
2022/01/14 11:59:46;;;;;;;4.30;2.40;;;;;;;5.65;88.72;99885.97;105781;1276;97840;-69
2022/01/14 12:02:44;;;;;;;4.20;2.20;;;;;;;5.67;88.79;99888.70;106246;1276;137998;-71